x

Nantucket Sound (44020) Wave Buoy

3:50 - Fri 20th Jan 2017 All times are EST. -5 hours from GMT.

  • Sig Wave height 1.0ft
  • Swell Direction
  • Peak Period 5s
  • Average Period 5s
  • Wind
    2mph, 7mph gusts
  • Sea Temp 41°f
  • Ar Temp 40°f
  • Sea Pressure 1014.8mb
  • Nantucket Sound
  • Nantucket Sound

More Historic Weather Station data

Upgrade to MSW Pro to gain access to the past 30 days of data for over 8000 Wavebouys and Weather Stations around the globe.

Join Pro

Comparision Forecast

View Surf forecast
   
Sex 01/20 3:50 1ft 5s 5s 2 7 mph 1014.8mb 41f 40f
2:50 1ft 5s 5s 2
mph
1015.2mb 41f 41f
1:50 1ft 5s 5s 2 4 mph 1014.9mb 42f 42f
12:50 1ft 5s 5s 4 7 mph 1015.1mb 43f 42f
11:50 1ft 5s 5s 2 4 mph 1016.1mb 43f 42f
10:50 1ft 12s 5s 4
mph
1016.8mb 43f 42f
9:50 1.3ft 5s 5s 4 7 mph 1017.2mb 43f 41f
8:50 1.3ft 11s 5s 7
mph
1016.6mb 43f 40f
7:50 1.3ft 9s 4s 7 9 mph 1016.1mb 43f 39f
6:50 1.6ft 10s 4s 9
mph
1015.7mb 41f 38f
5:50 1.6ft 11s 4s 9 11 mph 1015.9mb 40f 39f
4:50 1.3ft 5s 5s 11 13 mph 1015.8mb 40f 39f
3:50 1ft 5s 5s 9 11 mph 1015.8mb 41f 40f
2:50 1ft 11s 4s 7 9 mph 1015.4mb 41f 40f
1:50 1ft 6s 4s 7 9 mph 1015.5mb 41f 41f
12:50 1ft 5s 3s 13 16 mph 1014.4mb 42f 42f
Qui 01/19 11:50 1ft 11s 5s 13 16 mph 1015.4mb 43f 42f
10:50 1ft 6s 5s 9 11 mph 1016.5mb 43f 42f
9:50 1.3ft 5s 5s 7 9 mph 1016.2mb 43f 42f
8:50 1.6ft 11s 5s 9 11 mph 1016mb 43f 42f
6:50 1.6ft 11s 4s 11 13 mph 1015.2mb 42f 42f
5:50 2ft 4s 4s 4 7 mph 1014.5mb 41f 41f
4:50 1.6ft 4s 5s 9 11 mph 1013.9mb 41f 41f
3:50 1.3ft 9s 5s 4 7 mph 1013.8mb 41f 41f
2:50 1ft 10s 5s 9
mph
1013.4mb 41f 41f
1:50 1ft 5s 5s 9 11 mph 1013.6mb 41f 40f
12:50 1ft 4s 5s 9
mph
1013.7mb 42f 40f
11:50 1.3ft 5s 5s 7
mph
1014.6mb 43f 37f
10:50 1.3ft 5s 4s 7
mph
1015.4mb 43f 38f
9:50 1.6ft 4s 4s 7
mph
1016mb 43f 39f
8:50 2ft 5s 4s 9 11 mph 1015.8mb 43f 38f
7:50 2.5ft 5s 4s 9 13 mph 1015.7mb 43f 39f
6:50 2.5ft 4s 4s 11 13 mph 1015.3mb 43f 38f
5:50 2.5ft 5s 4s 13 16 mph 1015mb 41f 38f
4:50 2ft 5s 5s 13 16 mph 1014.9mb 41f 39f
3:50 1.6ft 8s 5s 9 11 mph 1014.7mb 41f 40f
2:50 1.3ft 8s 4s 9 11 mph 1014.9mb 41f 40f
1:50 1.3ft 5s 4s 13 16 mph 1015mb 41f 41f
12:50 1.6ft 5s 4s 9 11 mph 1014.2mb 42f 43f
Qua 01/18 11:50 1.6ft 5s 4s 11 16 mph 1014mb 43f 43f
10:50 2ft 5s 4s 13 18 mph 1014.2mb 43f 43f
9:50 2.5ft 5s 4s 16 18 mph 1014.7mb 43f 43f
8:50 3ft 5s 4s 18 20 mph 1015.2mb 43f 42f
7:50 3.5ft 5s 4s 20 25 mph 1014.6mb 43f 42f
6:50 3.5ft 5s 4s 20 22 mph 1014.4mb 43f 42f
5:50 4ft 5s 4s 20 27 mph 1013.7mb 43f 43f
4:50 4ft 5s 4s 22 29 mph 1012.8mb 41f 42f
3:50 3.5ft 5s 4s 22 25 mph 1012.8mb 41f 42f
2:50 3.5ft 4s 4s 22 27 mph 1011.8mb 41f 42f
1:50 3.5ft 5s 4s 22 29 mph 1010.9mb 41f 42f
12:50 3ft 5s 4s 22 29 mph 1010.4mb 41f 42f
11:50 3ft 4s 4s 22 29 mph 1011.1mb 41f 42f
10:50 3ft 5s 4s 20 27 mph 1012mb 42f 43f
9:50 3ft 4s 4s 22 25 mph 1012.8mb 42f 42f
8:50 3.5ft 4s 4s 22 27 mph 1012.6mb 43f 42f
7:50 3.5ft 4s 4s 22 27 mph 1012.8mb 42f 42f
6:50 3.5ft 4s 4s 25 29 mph 1012.4mb 41f 42f
5:50 3.5ft 6s 4s 25 29 mph 1012.9mb 41f 41f
4:50 3.5ft 6s 4s 25 29 mph 1013.4mb 40f 41f
3:50 3.5ft 6s 4s 22 27 mph 1013.9mb 39f 41f
2:50 2.5ft 5s 4s 22 25 mph 1014.5mb 39f 41f
1:50 2.5ft 5s 4s 16 18 mph 1015.7mb 39f 41f
12:50 3ft 5s 4s 13 16 mph 1017.7mb 40f 41f
Ter 01/17 11:50 3ft 5s 4s 18 22 mph 1017.1mb 41f 42f
10:50 2.5ft 5s 4s 22 27 mph 1018.2mb 41f 42f
9:50 2.5ft 5s 4s 18 22 mph 1019.7mb 41f 42f
8:50 2.5ft 4s 3s 18 20 mph 1020.7mb 41f 42f
7:50 1.6ft 3s 3s 20 22 mph 1020.3mb 41f 42f
6:50 1ft 2s 3s 20 22 mph 1020.5mb 41f 43f
5:50 0.7ft  -  3s 13 16 mph 1021.6mb 40f 43f
4:50 0.3ft  -  3s 11
mph
1021.5mb 40f 42f
3:50 0.7ft  -  3s 2
mph
1021.6mb 39f 39f
2:50 0.7ft  -  4s 2
mph
1021.6mb 39f 39f
1:50 0.7ft  -  4s 2
mph
1021.7mb 39f 38f
12:50 0.3ft  -  4s 2
mph
1022.3mb 39f 38f
11:50 0.3ft  -  3s 2 4 mph 1023.1mb 39f 38f
10:50 0.7ft  -  3s 4 7 mph 1023.6mb 40f 38f
9:50 0.7ft  -  4s 9 11 mph 1024.5mb 40f 39f
8:50 0.7ft  -  3s 9 11 mph 1024mb 40f 40f
7:50 0.7ft  -  3s 9 11 mph 1023.6mb 40f 40f
6:50 0.7ft  -  3s 9 11 mph 1022.8mb 40f 40f
5:50 0.7ft  -  3s 11 13 mph 1023mb 40f 40f
4:50 1ft 3s 3s 7 9 mph 1022.7mb 39f 40f
3:50 1ft 3s 3s 11
mph
1022.7mb 39f 40f
2:50 1.3ft 3s 3s 13
mph
1022.9mb 39f 40f
1:50 1.6ft 3s 3s 16 20 mph 1022.8mb 39f 40f
12:50 1.6ft 3s 3s 18 20 mph 1023mb 39f 40f
Seg 01/16 11:50 1.6ft 3s 3s 18 20 mph 1023.6mb 39f 39f
10:50 1.6ft 3s 3s 20 25 mph 1024.1mb 39f 40f